This is the latest recevied weather packets stored in our database for station/object KD2DXJ. If no packets are shown the sender has not sent any weather packets the latest 10 day(s).
| Time | Temp. | Humidity | Pressure | Rain* | Wind** | Luminosity | Snow |
|---|---|---|---|---|---|---|---|
| 1777657506 | 10.56° C | 51% | 1011.6 hPa | 0 mm | - | 195 W/m² | - |
| 1777657204 | 10.56° C | 49% | 1011.5 hPa | 0 mm | - | 203 W/m² | - |
| 1777656901 | 10.56° C | 50% | 1011.4 hPa | 0 mm | - | 252 W/m² | - |
| 1777656596 | 11.11° C | 43% | 1011.6 hPa | 0 mm | - | 819 W/m² | - |
| 1777656293 | 11.11° C | 43% | 1011.7 hPa | 0 mm | - | 257 W/m² | - |
| 1777655988 | 11.67° C | 41% | 1011.5 hPa | 0 mm | - | 278 W/m² | - |
| 1777655684 | 12.22° C | 44% | 1011.8 hPa | 0 mm | - | 886 W/m² | - |
| 1777655381 | 10.56° C | 50% | 1011.6 hPa | 0 mm | - | 874 W/m² | - |
| 1777655078 | 10.56° C | 48% | 1011.8 hPa | 0 mm | - | 227 W/m² | - |
| 1777654776 | 10.56° C | 44% | 1011.9 hPa | 0 mm | - | 198 W/m² | - |
| 1777654473 | 11.11° C | 45% | 1011.9 hPa | 0 mm | - | 199 W/m² | - |
| 1777654171 | 12.22° C | 42% | 1011.9 hPa | 0 mm | - | 254 W/m² | - |
| 1777653869 | 11.67° C | 47% | 1011.7 hPa | 0 mm | - | 834 W/m² | - |
| 1777653565 | 10.56° C | 47% | 1012 hPa | 0 mm | - | 176 W/m² | - |
| 1777653261 | 12.78° C | 42% | 1012.1 hPa | 0 mm | - | 224 W/m² | - |
| 1777652958 | 11.11° C | 47% | 1012.1 hPa | 0 mm | - | 800 W/m² | - |
| 1777652655 | 10° C | 48% | 1012 hPa | 0 mm | - | 875 W/m² | - |
| 1777652352 | 10.56° C | 50% | 1012.2 hPa | 0 mm | - | 200 W/m² | - |
| 1777652049 | 11.11° C | 45% | 1012.1 hPa | 0 mm | - | 207 W/m² | - |
| 1777651745 | 11.67° C | 46% | 1012.2 hPa | 0 mm | - | 747 W/m² | - |
| 1777651441 | 11.11° C | 48% | 1012.3 hPa | 0 mm | - | 237 W/m² | - |
| 1777651139 | 10° C | 47% | 1012.2 hPa | 0 mm | - | 560 W/m² | - |
| 1777650836 | 10.56° C | 46% | 1012.1 hPa | 0 mm | - | 236 W/m² | - |
| 1777650533 | 11.67° C | 44% | 1012.3 hPa | 0 mm | - | 236 W/m² | - |
| 1777650230 | 11.67° C | 42% | 1012.3 hPa | 0 mm | - | 840 W/m² | - |
* Rain latest hour (hover to see other rain measurements)
** Current wind speed in m/s (hover to see current wind gust speed)